• Join FlightAware (Why Join?)
  • Login
  • US Flag 
06:31PM EDT


 

Airport Tracker/Info


-or-


 

Live Flight TrackerFlight Track Log ✈ TAM3543 ✈ 02-Oct-2013 ✈ SBEG / MAO - SBBR / BSB

Flight Track Log - Related Links

Times and Time Zones

All times are in EDT time to prevent confusion due to time zone crossing. See the TAM3543 flight status page for this flight to view local times or setup timezone preferences in your user account.

Time Position Orientation Groundspeed Altitude Reporting Facility
EDT Latitude Longitude Course Direction KTS MPH feet Rate Location/Type
02:46AM -3.0390 -60.0320 90° East 165 190 900  Level FlightAware
02:46AM -3.0390 -60.0160 90° East 157 181 1,700 1,740 Climbing FlightAware
02:46AM -3.0390 -60.0030 90° East 161 185 2,100 1,260 Climbing FlightAware
02:47AM -3.0400 -59.9930 96° East 164 189 2,400 1,320 Climbing FlightAware
02:47AM -3.0440 -59.9870 124° Southeast 166 191 2,600 1,500 Climbing FlightAware
02:47AM -3.0490 -59.9830 141° Southeast 169 194 2,800 840 Climbing FlightAware
02:47AM -3.0620 -59.9730 142° Southeast 189 217 3,000 720 Climbing FlightAware
02:48AM -3.0760 -59.9610 139° Southeast 210 242 3,300 780 Climbing FlightAware
02:48AM -3.0890 -59.9510 142° Southeast 228 262 3,500 960 Climbing FlightAware
02:48AM -3.1060 -59.9370 141° Southeast 253 291 3,900 1,500 Climbing FlightAware
02:48AM -3.1220 -59.9240 141° Southeast 263 303 4,400 2,160 Climbing FlightAware
02:49AM -3.1410 -59.9090 142° Southeast 268 308 5,200 2,520 Climbing FlightAware
02:49AM -3.1620 -59.8930 143° Southeast 271 312 6,100 2,460 Climbing FlightAware
02:49AM -3.1760 -59.8810 139° Southeast 273 314 6,700 2,460 Climbing FlightAware
02:50AM -3.1980 -59.8640 142° Southeast 273 314 7,600 2,220 Climbing FlightAware
02:50AM -3.2170 -59.8490 142° Southeast 280 322 8,200 1,980 Climbing FlightAware
02:50AM -3.2330 -59.8360 141° Southeast 283 326 8,800 2,280 Climbing FlightAware
02:51AM -3.2540 -59.8190 141° Southeast 285 328 9,600 1,920 Climbing FlightAware
02:51AM -3.2880 -59.7920 142° Southeast 300 345 10,500 1,200 Climbing FlightAware
02:52AM -3.3280 -59.7600 141° Southeast 333 383 11,000 1,260 Climbing FlightAware
02:52AM -3.3780 -59.7200 141° Southeast 350 403 12,100 1,860 Climbing FlightAware
02:53AM -3.4090 -59.6920 138° Southeast 353 406 13,000 1,860 Climbing FlightAware
02:54AM -3.4440 -59.6420 125° Southeast 359 413 14,100 1,620 Climbing FlightAware
02:54AM -3.4750 -59.5990 126° Southeast 369 425 14,900 1,680 Climbing FlightAware
02:55AM -3.5090 -59.5500 125° Southeast 373 429 16,000 840 Climbing FlightAware
02:55AM -3.5410 -59.5040 125° Southeast 373 429 16,000 960 Level FlightAware
02:56AM -3.5790 -59.4520 126° Southeast 380 437 17,200 1,020 Climbing FlightAware
02:56AM -3.6100 -59.4080 125° Southeast 380 437 17,200  Level FlightAware
02:57AM -3.6410 -59.3630 125° Southeast 380 437 17,200  Level FlightAware
02:58AM -3.6720 -59.3190 125° Southeast 380 437 17,200  Level FlightAware
02:58AM -3.7020 -59.2750 124° Southeast 380 437 17,200  Level FlightAware
02:59AM -3.7330 -59.2310 125° Southeast 380 437 17,200 120 Level FlightAware
03:01AM -3.8718 -59.1067 138° Southeast  Level Estimated
03:02AM -3.9535 -59.0336 138° Southeast  Level Estimated
03:03AM -4.0352 -58.9604 138° Southeast  Level Estimated
03:04AM -4.1168 -58.8872 138° Southeast  Level Estimated
03:05AM -4.1985 -58.8140 138° Southeast  Level Estimated
03:06AM -4.2801 -58.7408 138° Southeast  Level Estimated
03:07AM -4.3617 -58.6676 138° Southeast  Level Estimated
03:08AM -4.4433 -58.5944 138° Southeast  Level Estimated
03:09AM -4.5250 -58.5211 138° Southeast  Level Estimated
03:10AM -4.6066 -58.4478 138° Southeast  Level Estimated
03:11AM -4.6882 -58.3746 138° Southeast  Level Estimated
03:12AM -4.7698 -58.3013 138° Southeast  Level Estimated
03:13AM -4.8513 -58.2279 138° Southeast  Level Estimated
03:14AM -4.9329 -58.1546 138° Southeast  Level Estimated
03:15AM -5.0145 -58.0812 138° Southeast  Level Estimated
03:16AM -5.0960 -58.0079 138° Southeast  Level Estimated
03:17AM -5.1776 -57.9345 138° Southeast  Level Estimated
03:18AM -5.2591 -57.8611 138° Southeast  Level Estimated
03:19AM -5.3407 -57.7876 138° Southeast  Level Estimated
03:20AM -5.4222 -57.7142 138° Southeast  Level Estimated
03:21AM -5.5037 -57.6407 138° Southeast  Level Estimated
03:22AM -5.5852 -57.5672 138° Southeast  Level Estimated
03:23AM -5.6667 -57.4937 138° Southeast  Level Estimated
03:24AM -5.7482 -57.4202 138° Southeast  Level Estimated
03:25AM -5.8297 -57.3466 138° Southeast  Level Estimated
03:26AM -5.9112 -57.2731 138° Southeast  Level Estimated
03:27AM -5.9926 -57.1995 138° Southeast  Level Estimated
03:28AM -6.0741 -57.1259 138° Southeast  Level Estimated
03:29AM -6.1555 -57.0522 138° Southeast  Level Estimated
03:30AM -6.2369 -56.9785 138° Southeast  Level Estimated
03:31AM -6.3184 -56.9049 138° Southeast  Level Estimated
03:32AM -6.3998 -56.8312 138° Southeast  Level Estimated
03:33AM -6.4812 -56.7574 138° Southeast  Level Estimated
03:34AM -6.5626 -56.6837 138° Southeast  Level Estimated
03:35AM -6.6439 -56.6099 138° Southeast  Level Estimated
03:36AM -6.7253 -56.5361 138° Southeast  Level Estimated
03:37AM -6.8067 -56.4622 138° Southeast  Level Estimated
03:38AM -6.8880 -56.3884 138° Southeast  Level Estimated
03:39AM -6.9693 -56.3145 138° Southeast  Level Estimated
03:40AM -7.0507 -56.2406 138° Southeast  Level Estimated
03:41AM -7.1320 -56.1667 138° Southeast  Level Estimated
03:42AM -7.2133 -56.0927 138° Southeast  Level Estimated
03:43AM -7.2946 -56.0187 138° Southeast  Level Estimated
03:44AM -7.3759 -55.9447 138° Southeast  Level Estimated
03:45AM -7.4571 -55.8707 138° Southeast  Level Estimated
03:46AM -7.5384 -55.7966 138° Southeast  Level Estimated
03:47AM -7.6196 -55.7225 138° Southeast  Level Estimated
03:48AM -7.7008 -55.6484 138° Southeast  Level Estimated
03:49AM -7.7820 -55.5743 138° Southeast  Level Estimated
03:50AM -7.8632 -55.5001 138° Southeast  Level Estimated
03:51AM -7.9444 -55.4259 138° Southeast  Level Estimated
03:52AM -8.0256 -55.3516 138° Southeast  Level Estimated
03:53AM -8.1068 -55.2774 138° Southeast  Level Estimated
03:54AM -8.1879 -55.2031 138° Southeast  Level Estimated
03:55AM -8.2690 -55.1287 138° Southeast  Level Estimated
03:56AM -8.3502 -55.0544 138° Southeast  Level Estimated
03:57AM -8.4313 -54.9800 138° Southeast  Level Estimated
03:58AM -8.5124 -54.9056 138° Southeast  Level Estimated
03:59AM -8.5934 -54.8311 138° Southeast  Level Estimated
04:00AM -8.6745 -54.7566 138° Southeast  Level Estimated
04:01AM -8.7556 -54.6821 138° Southeast  Level Estimated
04:02AM -8.8366 -54.6076 138° Southeast  Level Estimated
04:03AM -8.9176 -54.5330 138° Southeast  Level Estimated
04:04AM -8.9986 -54.4584 138° Southeast  Level Estimated
04:05AM -9.0796 -54.3837 138° Southeast  Level Estimated
04:06AM -9.1606 -54.3090 138° Southeast  Level Estimated
04:07AM -9.2415 -54.2343 138° Southeast  Level Estimated
04:08AM -9.3225 -54.1596 138° Southeast  Level Estimated
04:09AM -9.4034 -54.0848 138° Southeast  Level Estimated
04:10AM -9.4843 -54.0100 138° Southeast  Level Estimated
04:11AM -9.5652 -53.9351 138° Southeast  Level Estimated
04:12AM -9.6461 -53.8602 138° Southeast  Level Estimated
04:13AM -9.7269 -53.7853 138° Southeast  Level Estimated
04:14AM -9.8078 -53.7104 138° Southeast  Level Estimated
04:15AM -9.8886 -53.6353 138° Southeast  Level Estimated
04:16AM -9.9694 -53.5603 138° Southeast  Level Estimated
04:17AM -10.0502 -53.4852 138° Southeast  Level Estimated
04:18AM -10.1310 -53.4101 138° Southeast  Level Estimated
04:19AM -10.2118 -53.3350 138° Southeast  Level Estimated
04:20AM -10.2925 -53.2598 138° Southeast  Level Estimated
04:21AM -10.3733 -53.1846 137° Southeast  Level Estimated
04:22AM -10.4540 -53.1093 137° Southeast  Level Estimated
04:23AM -10.5347 -53.0340 137° Southeast  Level Estimated
04:24AM -10.6153 -52.9587 137° Southeast  Level Estimated
04:25AM -10.6960 -52.8833 137° Southeast  Level Estimated
04:26AM -10.7766 -52.8079 137° Southeast  Level Estimated
04:27AM -10.8573 -52.7324 137° Southeast  Level Estimated
04:28AM -10.9379 -52.6569 137° Southeast  Level Estimated
04:29AM -11.0184 -52.5814 137° Southeast  Level Estimated
04:30AM -11.0990 -52.5058 137° Southeast  Level Estimated
04:31AM -11.1796 -52.4301 137° Southeast  Level Estimated
04:32AM -11.2601 -52.3545 137° Southeast  Level Estimated
04:33AM -11.3406 -52.2788 137° Southeast  Level Estimated
04:34AM -11.4211 -52.2030 137° Southeast  Level Estimated
04:35AM -11.5016 -52.1272 137° Southeast  Level Estimated
04:36AM -11.5820 -52.0514 137° Southeast  Level Estimated
04:37AM -11.6624 -51.9755 137° Southeast  Level Estimated
04:38AM -11.7429 -51.8996 137° Southeast  Level Estimated
04:39AM -11.8232 -51.8236 137° Southeast  Level Estimated
04:40AM -11.9036 -51.7476 137° Southeast  Level Estimated
04:41AM -11.9840 -51.6715 137° Southeast  Level Estimated
04:42AM -12.0643 -51.5954 137° Southeast  Level Estimated
04:43AM -12.1446 -51.5193 137° Southeast  Level Estimated
04:44AM -12.2249 -51.4431 137° Southeast  Level Estimated
04:45AM -12.3052 -51.3668 137° Southeast  Level Estimated
04:46AM -12.3854 -51.2905 137° Southeast  Level Estimated
04:47AM -12.4656 -51.2142 137° Southeast  Level Estimated
04:48AM -12.5458 -51.1378 137° Southeast  Level Estimated
04:49AM -12.6260 -51.0614 137° Southeast  Level Estimated
04:50AM -12.7062 -50.9849 137° Southeast  Level Estimated
04:51AM -12.7863 -50.9084 137° Southeast  Level Estimated
04:52AM -12.8665 -50.8318 137° Southeast  Level Estimated
04:52AM -14.4860 -49.5790 137° Southeast 450 518 31,800  Level FlightAware
04:53AM -12.9465 -50.7551 137° Southeast  Level Estimated
04:53AM -14.5400 -49.5280 138° Southeast 441 507 30,600  Level FlightAware
04:54AM -14.5980 -49.4740 138° Southeast 433 498 29,100 -2,100 Descending FlightAware
04:54AM -14.6500 -49.4240 137° Southeast 428 493 28,000 -1,980 Descending FlightAware
04:55AM -14.6950 -49.3820 138° Southeast 423 487 27,000 -1,980 Descending FlightAware
04:55AM -14.7540 -49.3260 137° Southeast 416 479 25,700 -2,100 Descending FlightAware
04:56AM -14.8000 -49.2830 138° Southeast 412 474 24,400 -1,800 Descending FlightAware
04:57AM -14.8470 -49.2380 137° Southeast 416 479 23,600 -1,680 Descending FlightAware
04:57AM -14.9300 -49.1600 138° Southeast 472 543 22,000 -1,140 Descending FlightAware
04:58AM -14.9780 -49.1130 137° Southeast 472 543 22,000  Level FlightAware
04:59AM -15.0270 -49.0650 137° Southeast 472 543 22,000  Level FlightAware
04:59AM -15.0760 -49.0180 137° Southeast 472 543 22,000  Level FlightAware
05:00AM -15.1260 -48.9700 137° Southeast 472 543 22,000  Level FlightAware
05:00AM -15.1750 -48.9220 137° Southeast 472 543 22,000 -2,340 Level FlightAware
05:03AM -15.3039 -48.7338 125° Southeast  Level Estimated
05:03AM -15.4240 -48.6240 125° Southeast 423 487 14,800  Level FlightAware
05:04AM -15.4720 -48.5720 134° Southeast 422 486 13,200 -2,760 Descending FlightAware
05:04AM -15.5200 -48.5190 133° Southeast 414 476 11,600 -1,800 Descending FlightAware
05:05AM -15.5640 -48.4710 134° Southeast 385 443 11,100 -720 Descending FlightAware
05:05AM -15.6040 -48.4270 133° Southeast 349 402 10,800 -600 Descending FlightAware
05:06AM -15.6410 -48.3870 134° Southeast 322 371 10,400 -1,020 Descending FlightAware
05:06AM -15.6630 -48.3630 134° Southeast 317 365 9,900 -1,440 Descending FlightAware
05:07AM -15.6810 -48.3430 133° Southeast 311 358 9,500 -1,380 Descending FlightAware
05:07AM -15.6970 -48.3250 133° Southeast 307 353 9,100 -1,500 Descending FlightAware
05:07AM -15.7200 -48.3010 135° Southeast 304 350 8,500 -1,620 Descending FlightAware
05:08AM -15.7400 -48.2780 132° Southeast 303 349 7,900 -1,380 Descending FlightAware
05:08AM -15.7560 -48.2610 134° Southeast 297 342 7,700 -600 Descending FlightAware
05:08AM -15.7770 -48.2380 133° Southeast 280 322 7,500 -420 Descending FlightAware
05:09AM -15.8000 -48.2260 153° Southeast 266 306 7,400 -600 Descending FlightAware
05:09AM -15.8220 -48.2210 168° South 256 295 7,100 -600 Descending FlightAware
05:09AM -15.8560 -48.2150 170° South 229 264 6,900 -540 Descending FlightAware
05:10AM -15.8730 -48.2100 164° South 224 258 6,700 -660 Descending FlightAware
05:10AM -15.8880 -48.1920 131° Southeast 212 244 6,500 -540 Descending FlightAware
05:10AM -15.8930 -48.1680 102° East 203 234 6,300 -480 Descending FlightAware
05:11AM -15.8940 -48.1560 95° East 202 232 6,200 -540 Descending FlightAware
05:11AM -15.8930 -48.1370 87° East 201 231 6,000 -480 Descending FlightAware
05:12AM -15.8900 -48.0910 86° East 201 231 5,700 -420 Descending FlightAware
05:12AM -15.8890 -48.0770 86° East 183 211 5,600 -360 Descending FlightAware
05:12AM -15.8880 -48.0620 86° East 167 192 5,500 -240 Descending FlightAware
05:13AM -15.8870 -48.0360 88° East 165 190 5,400 -720 Descending FlightAware
05:13AM -15.8870 -48.0300 90° East 156 180 5,000 -1,200 Descending FlightAware
05:14AM -15.8850 -48.0080 85° East 152 175 4,600 -540 Descending FlightAware
05:14AM -15.8830 -47.9790 86° East 150 173 4,400 -300 Descending FlightAware
05:15AM -15.8800 -47.9310 86° East 155 178 -4,440 Descending FlightAware
05:16AM -15.8790 -47.9160 86° East 155 178  Level FlightAware
05:18AM -15.8626 -47.9127 11° North  Level Estimated